createdAt,value
2022-09-10T00:01:38.476Z,14.29
2022-09-10T00:04:10.738Z,14.36
2022-09-10T00:06:37.104Z,14.31
2022-09-10T00:09:03.553Z,14.33
2022-09-10T00:11:30.015Z,14.44
2022-09-10T00:13:57.236Z,14.39
2022-09-10T00:16:24.116Z,14.48
2022-09-10T00:18:50.462Z,14.58
2022-09-10T00:21:19.235Z,14.63
2022-09-10T00:23:45.583Z,14.61
2022-09-10T00:26:24.579Z,14.68
2022-09-10T00:28:52.540Z,14.73
2022-09-10T00:31:20.492Z,14.77
2022-09-10T00:33:47.172Z,14.75
2022-09-10T00:36:36.221Z,14.84
2022-09-10T00:39:07.093Z,14.85
2022-09-10T00:41:34.926Z,14.88
2022-09-10T00:44:04.431Z,14.89
2022-09-10T00:46:44.663Z,14.83
2022-09-10T00:49:43.025Z,14.88
2022-09-10T00:52:09.811Z,14.89
2022-09-10T00:54:37.758Z,14.87
2022-09-10T00:57:09.604Z,14.79
2022-09-10T00:59:36.306Z,14.75
2022-09-10T01:02:02.762Z,14.74
2022-09-10T01:04:29.206Z,14.78
2022-09-10T01:06:55.859Z,14.70
2022-09-10T01:09:23.832Z,14.72
2022-09-10T01:12:20.983Z,14.69
2022-09-10T01:15:20.073Z,14.66
2022-09-10T01:18:07.132Z,14.61
2022-09-10T01:20:45.932Z,14.56
2022-09-10T01:23:49.625Z,14.56
2022-09-10T01:26:43.824Z,14.53
2022-09-10T01:29:19.093Z,14.53
2022-09-10T01:32:02.700Z,14.51
2022-09-10T01:34:37.514Z,14.44
2022-09-10T01:37:08.852Z,14.49
2022-09-10T01:39:35.294Z,14.47
2022-09-10T01:42:01.726Z,14.51
2022-09-10T01:44:51.309Z,14.51
2022-09-10T01:47:31.141Z,14.53
2022-09-10T01:49:57.495Z,14.54
2022-09-10T01:52:26.775Z,14.54
2022-09-10T01:55:17.176Z,14.48
2022-09-10T01:57:57.013Z,14.52
2022-09-10T02:00:25.458Z,14.64
2022-09-10T02:03:05.414Z,14.64
2022-09-10T02:05:33.870Z,14.73
2022-09-10T02:08:04.991Z,14.70
2022-09-10T02:10:31.384Z,14.78
2022-09-10T02:12:57.828Z,14.74
2022-09-10T02:15:26.803Z,14.82
2022-09-10T02:17:53.253Z,14.86
2022-09-10T02:20:20.914Z,14.79
2022-09-10T02:22:55.762Z,14.86
2022-09-10T02:25:22.152Z,14.76
2022-09-10T02:27:48.555Z,14.85
2022-09-10T02:30:15.134Z,14.81
2022-09-10T02:32:41.445Z,14.82
2022-09-10T02:35:08.434Z,14.73
2022-09-10T02:37:34.863Z,14.75
2022-09-10T02:40:01.433Z,14.65
2022-09-10T02:42:27.766Z,14.76
2022-09-10T02:44:54.119Z,14.71
2022-09-10T02:47:20.491Z,14.74
2022-09-10T02:49:47.015Z,14.80
2022-09-10T02:52:13.397Z,14.78
2022-09-10T02:54:39.767Z,14.86
2022-09-10T02:57:06.081Z,14.88
2022-09-10T02:59:32.485Z,14.91
2022-09-10T03:01:58.815Z,14.93
2022-09-10T03:04:25.217Z,14.94
2022-09-10T03:06:51.524Z,14.89
2022-09-10T03:09:17.831Z,14.94
2022-09-10T03:11:44.204Z,14.93
2022-09-10T03:14:11.134Z,14.94
2022-09-10T03:16:37.600Z,14.95
2022-09-10T03:19:03.990Z,14.90
2022-09-10T03:21:30.316Z,14.93
2022-09-10T03:23:57.179Z,15.01
2022-09-10T03:26:24.435Z,15.02
2022-09-10T03:28:50.783Z,14.92
2022-09-10T03:31:17.351Z,14.93
2022-09-10T03:33:44.320Z,14.95
2022-09-10T03:36:11.357Z,14.93
2022-09-10T03:38:37.841Z,15.02
2022-09-10T03:41:04.214Z,15.03
2022-09-10T03:43:30.923Z,15.03
2022-09-10T03:45:57.389Z,14.99
2022-09-10T03:48:24.083Z,14.94
2022-09-10T03:50:50.526Z,14.95
2022-09-10T03:53:18.905Z,14.98
2022-09-10T03:55:46.797Z,14.96
2022-09-10T03:58:14.431Z,15.01
2022-09-10T04:00:41.156Z,15.02
2022-09-10T04:03:07.714Z,15.03
2022-09-10T04:05:34.486Z,15.01
2022-09-10T04:08:01.156Z,15.06
2022-09-10T04:10:29.079Z,15.06
2022-09-10T04:12:55.449Z,15.09
2022-09-10T04:15:23.739Z,15.08
2022-09-10T04:17:50.470Z,15.07
2022-09-10T04:20:18.182Z,15.12
2022-09-10T04:22:44.527Z,15.12
2022-09-10T04:25:10.828Z,15.13
2022-09-10T04:27:37.158Z,15.08
2022-09-10T04:30:03.777Z,15.11
2022-09-10T04:32:30.154Z,15.15
2022-09-10T04:34:56.483Z,15.16
2022-09-10T04:37:22.858Z,15.11
2022-09-10T04:39:49.253Z,15.15
2022-09-10T04:42:15.652Z,15.12
2022-09-10T04:44:42.012Z,15.08
2022-09-10T04:47:08.330Z,15.16
2022-09-10T04:49:34.635Z,15.11
2022-09-10T04:52:01.221Z,15.03
2022-09-10T04:54:27.535Z,15.14
2022-09-10T04:56:53.845Z,15.15
2022-09-10T04:59:20.276Z,15.09
2022-09-10T05:01:47.153Z,15.06
2022-09-10T05:04:13.515Z,15.10
2022-09-10T05:06:39.867Z,15.20
2022-09-10T05:09:06.224Z,15.09
2022-09-10T05:11:32.527Z,15.21
2022-09-10T05:13:58.977Z,15.14
2022-09-10T05:16:25.704Z,15.18
2022-09-10T05:18:52.024Z,15.09
2022-09-10T05:21:18.927Z,15.12
2022-09-10T05:23:45.380Z,15.01
2022-09-10T05:26:11.688Z,15.12
2022-09-10T05:28:38.356Z,15.11
2022-09-10T05:31:04.831Z,15.06
2022-09-10T05:33:31.157Z,15.04
2022-09-10T05:35:57.492Z,14.98
2022-09-10T05:38:23.842Z,14.98
2022-09-10T05:40:50.200Z,15.04
2022-09-10T05:43:16.582Z,15.02
2022-09-10T05:45:42.993Z,15.04
2022-09-10T05:48:09.422Z,15.01
2022-09-10T05:50:35.888Z,15.05
2022-09-10T05:53:02.218Z,15.10
2022-09-10T05:55:28.506Z,15.14
2022-09-10T05:57:54.906Z,15.11
2022-09-10T06:00:21.337Z,15.15
2022-09-10T06:02:47.695Z,15.05
2022-09-10T06:05:14.114Z,15.13
2022-09-10T06:07:40.451Z,15.09
2022-09-10T06:10:07.230Z,15.19
2022-09-10T06:12:33.622Z,15.17
2022-09-10T06:14:59.977Z,15.19
2022-09-10T06:17:26.284Z,15.22
2022-09-10T06:19:52.653Z,15.19
2022-09-10T06:22:18.960Z,15.21
2022-09-10T06:24:45.391Z,15.29
2022-09-10T06:27:11.708Z,15.32
2022-09-10T06:29:38.023Z,15.34
2022-09-10T06:32:04.648Z,15.28
2022-09-10T06:34:31.067Z,15.36
2022-09-10T06:36:57.515Z,15.39
2022-09-10T06:39:23.834Z,15.39
2022-09-10T06:41:50.210Z,15.39
2022-09-10T06:44:16.613Z,15.44
2022-09-10T06:49:29.273Z,15.92
2022-09-10T06:51:56.285Z,16.47
2022-09-10T06:54:22.618Z,17.09
2022-09-10T06:56:49.274Z,17.68
2022-09-10T06:59:15.592Z,18.10
2022-09-10T07:01:42.023Z,18.42
2022-09-10T07:04:08.404Z,18.51
2022-09-10T07:06:36.047Z,18.47
2022-09-10T07:09:03.232Z,18.46
2022-09-10T07:11:29.664Z,18.62
2022-09-10T07:13:56.012Z,18.69
2022-09-10T07:16:24.653Z,18.69
2022-09-10T07:18:52.306Z,18.45
2022-09-10T07:21:19.197Z,18.45
2022-09-10T07:23:46.546Z,18.37
2022-09-10T07:26:15.521Z,18.36
2022-09-10T07:28:42.099Z,18.27
2022-09-10T07:31:21.693Z,18.17
2022-09-10T07:33:49.064Z,17.94
2022-09-10T07:36:16.584Z,17.96
2022-09-10T07:38:43.684Z,17.91
2022-09-10T07:41:13.281Z,17.90
2022-09-10T07:43:41.055Z,17.80
2022-09-10T07:46:10.655Z,17.79
2022-09-10T07:48:36.993Z,17.84
2022-09-10T07:51:08.177Z,17.99
2022-09-10T07:53:35.139Z,18.18
2022-09-10T07:56:04.295Z,18.47
2022-09-10T07:58:32.600Z,18.65
2022-09-10T08:00:59.835Z,18.68
2022-09-10T08:03:29.601Z,18.70
2022-09-10T08:06:00.424Z,18.64
2022-09-10T08:08:31.350Z,18.58
2022-09-10T08:11:23.746Z,18.53
2022-09-10T08:13:51.910Z,18.44
2022-09-10T08:16:20.849Z,18.37
2022-09-10T08:18:47.996Z,18.40
2022-09-10T08:21:16.029Z,18.21
2022-09-10T08:23:42.674Z,18.24
2022-09-10T08:26:09.189Z,18.23
2022-09-10T08:28:36.708Z,18.07
2022-09-10T08:31:06.016Z,17.92
2022-09-10T08:33:32.395Z,17.74
2022-09-10T08:35:59.960Z,17.71
2022-09-10T08:38:30.128Z,17.58
2022-09-10T08:40:57.043Z,17.53
2022-09-10T08:43:31.387Z,17.54
2022-09-10T08:46:01.859Z,17.50
2022-09-10T08:48:31.592Z,17.45
2022-09-10T08:51:11.256Z,17.37
2022-09-10T08:53:46.063Z,17.38
2022-09-10T08:56:19.517Z,17.39
2022-09-10T08:58:56.397Z,17.36
2022-09-10T09:01:37.632Z,17.29
2022-09-10T09:04:12.028Z,17.25
2022-09-10T09:06:46.445Z,17.30
2022-09-10T09:09:15.723Z,17.37
2022-09-10T09:12:03.555Z,17.58
2022-09-10T09:14:51.312Z,17.71
2022-09-10T09:17:33.811Z,17.96
2022-09-10T09:20:26.332Z,18.21
2022-09-10T09:22:54.963Z,18.42
2022-09-10T09:25:27.530Z,18.55
2022-09-10T09:27:56.035Z,18.76
2022-09-10T09:30:37.580Z,18.96
2022-09-10T09:33:14.227Z,19.37
2022-09-10T09:35:50.527Z,19.45
2022-09-10T09:38:45.081Z,19.51
2022-09-10T09:41:23.926Z,19.48
2022-09-10T09:44:05.663Z,19.32
2022-09-10T09:46:32.103Z,19.32
2022-09-10T09:49:01.945Z,19.19
2022-09-10T09:51:29.787Z,19.20
2022-09-10T09:54:39.472Z,19.52
2022-09-10T09:56:53.735Z,19.93
2022-09-10T09:59:29.214Z,20.07
2022-09-10T10:02:04.267Z,20.15
2022-09-10T10:04:30.869Z,20.24
2022-09-10T10:06:59.575Z,20.23
2022-09-10T10:09:28.428Z,20.11
2022-09-10T10:12:05.958Z,20.28
2022-09-10T10:14:32.198Z,20.17
2022-09-10T10:17:00.981Z,19.96
2022-09-10T10:19:27.505Z,19.92
2022-09-10T10:21:53.879Z,19.82
2022-09-10T10:24:38.110Z,19.54
2022-09-10T10:27:04.499Z,19.45
2022-09-10T10:29:31.101Z,19.37
2022-09-10T10:31:57.652Z,19.32
2022-09-10T10:34:41.992Z,19.19
2022-09-10T10:37:17.650Z,18.96
2022-09-10T10:40:04.936Z,18.91
2022-09-10T10:42:49.524Z,18.70
2022-09-10T10:45:44.781Z,18.60
2022-09-10T10:48:29.973Z,18.59
2022-09-10T10:51:20.560Z,18.65
2022-09-10T10:54:18.899Z,18.60
2022-09-10T10:57:02.176Z,18.57
2022-09-10T10:59:58.629Z,18.69
2022-09-10T11:02:43.212Z,18.82
2022-09-10T11:05:35.242Z,18.99
2022-09-10T11:08:16.442Z,19.09
2022-09-10T11:10:47.627Z,19.25
2022-09-10T11:13:39.928Z,19.57
2022-09-10T11:16:14.118Z,19.77
2022-09-10T11:18:46.775Z,20.08
2022-09-10T11:21:20.326Z,20.28
2022-09-10T11:24:07.851Z,20.42
2022-09-10T11:26:52.226Z,20.57
2022-09-10T11:29:27.587Z,20.64
2022-09-10T11:32:04.652Z,20.61
2022-09-10T11:34:40.143Z,20.58
2022-09-10T11:37:24.898Z,20.69
2022-09-10T11:39:54.886Z,20.78
2022-09-10T11:42:39.233Z,20.84
2022-09-10T11:45:19.488Z,20.87
2022-09-10T11:47:55.277Z,20.89
2022-09-10T11:50:34.437Z,20.94
2022-09-10T11:53:02.374Z,20.92
2022-09-10T11:56:10.686Z,20.91
2022-09-10T11:58:53.810Z,20.90
2022-09-10T12:01:38.434Z,20.90
2022-09-10T12:04:24.305Z,20.88
2022-09-10T12:07:21.951Z,20.92
2022-09-10T12:10:09.900Z,20.83
2022-09-10T12:12:43.970Z,20.71
2022-09-10T12:15:17.164Z,20.73
2022-09-10T12:17:48.275Z,20.76
2022-09-10T12:20:20.068Z,20.79
2022-09-10T12:22:51.120Z,20.78
2022-09-10T12:25:17.355Z,20.71
2022-09-10T12:27:51.051Z,20.70
2022-09-10T12:30:26.483Z,20.75
2022-09-10T12:32:54.136Z,20.72
2022-09-10T12:35:29.630Z,20.89
2022-09-10T12:38:33.609Z,20.97
2022-09-10T12:41:08.526Z,20.86
2022-09-10T12:43:40.766Z,20.86
2022-09-10T12:46:07.198Z,20.83
2022-09-10T12:48:35.539Z,20.73
2022-09-10T12:51:20.821Z,20.77
2022-09-10T12:53:55.149Z,21.05
2022-09-10T12:56:55.167Z,21.23
2022-09-10T12:59:50.519Z,21.26
2022-09-10T13:02:30.904Z,21.45
2022-09-10T13:05:01.737Z,21.66
2022-09-10T13:07:35.880Z,21.81
2022-09-10T13:10:21.144Z,21.58
2022-09-10T13:12:53.475Z,21.49
2022-09-10T13:15:24.279Z,21.46
2022-09-10T13:17:50.541Z,21.43
2022-09-10T13:20:19.909Z,21.46
2022-09-10T13:23:01.522Z,21.40
2022-09-10T13:25:35.447Z,21.41
2022-09-10T13:28:02.404Z,21.42
2022-09-10T13:30:29.905Z,21.41
2022-09-10T13:33:04.812Z,21.46
2022-09-10T13:35:56.347Z,21.41
2022-09-10T13:39:08.006Z,21.38
2022-09-10T13:42:05.302Z,21.43
2022-09-10T13:44:46.560Z,21.67
2022-09-10T13:47:18.956Z,21.94
2022-09-10T13:50:00.665Z,22.06
2022-09-10T13:52:47.863Z,22.08
2022-09-10T13:55:20.586Z,22.02
2022-09-10T13:57:50.563Z,21.97
2022-09-10T14:00:16.810Z,21.92
2022-09-10T14:03:01.665Z,21.78
2022-09-10T14:05:48.383Z,21.85
2022-09-10T14:08:23.760Z,21.77
2022-09-10T14:11:07.594Z,21.84
2022-09-10T14:14:08.176Z,21.80
2022-09-10T14:17:03.836Z,21.73
2022-09-10T14:19:57.092Z,21.62
2022-09-10T14:22:25.062Z,21.60
2022-09-10T14:24:54.477Z,21.64
2022-09-10T14:27:30.155Z,21.59
2022-09-10T14:30:16.087Z,21.72
2022-09-10T14:32:42.443Z,21.84
2022-09-10T14:35:37.181Z,21.83
2022-09-10T14:38:23.891Z,21.82
2022-09-10T14:40:58.536Z,21.89
2022-09-10T14:43:36.310Z,21.91
2022-09-10T14:46:03.464Z,21.98
2022-09-10T14:48:35.842Z,22.09
2022-09-10T14:51:24.021Z,22.30
2022-09-10T14:53:52.925Z,22.42
2022-09-10T14:56:40.588Z,22.58
2022-09-10T14:59:13.128Z,22.69
2022-09-10T15:01:45.017Z,22.59
2022-09-10T15:04:16.942Z,22.36
2022-09-10T15:06:43.732Z,22.27
2022-09-10T15:09:14.441Z,22.32
2022-09-10T15:12:06.970Z,22.31
2022-09-10T15:14:33.879Z,22.15
2022-09-10T15:17:00.529Z,22.07
2022-09-10T15:19:26.893Z,21.98
2022-09-10T15:21:53.254Z,21.85
2022-09-10T15:24:21.790Z,21.74
2022-09-10T15:26:48.823Z,21.45
2022-09-10T15:29:15.684Z,21.40
2022-09-10T15:31:42.479Z,21.38
2022-09-10T15:34:10.214Z,21.43
2022-09-10T15:36:38.131Z,21.56
2022-09-10T15:39:05.423Z,21.54
2022-09-10T15:41:31.758Z,21.53
2022-09-10T15:43:58.679Z,21.50
2022-09-10T15:46:25.073Z,21.43
2022-09-10T15:48:52.492Z,21.39
2022-09-10T15:51:23.601Z,21.35
2022-09-10T15:53:52.047Z,21.22
2022-09-10T15:56:20.196Z,21.31
2022-09-10T15:58:55.341Z,21.30
2022-09-10T16:01:22.787Z,21.30
2022-09-10T16:04:00.534Z,21.30
2022-09-10T16:06:27.202Z,21.33
2022-09-10T16:08:56.056Z,21.39
2022-09-10T16:11:23.497Z,21.43
2022-09-10T16:13:50.243Z,21.43
2022-09-10T16:16:19.542Z,21.44
2022-09-10T16:18:46.671Z,21.44
2022-09-10T16:21:15.472Z,21.42
2022-09-10T16:23:42.846Z,21.39
2022-09-10T16:26:11.587Z,21.40
2022-09-10T16:28:37.915Z,21.45
2022-09-10T16:31:20.642Z,21.45
2022-09-10T16:33:48.373Z,21.36
2022-09-10T16:36:17.441Z,21.35
2022-09-10T16:38:43.963Z,21.30
2022-09-10T16:41:15.091Z,21.12
2022-09-10T16:43:42.346Z,21.12
2022-09-10T16:46:11.592Z,20.99
2022-09-10T16:48:40.707Z,20.89
2022-09-10T16:51:13.751Z,20.80
2022-09-10T16:53:46.173Z,20.72
2022-09-10T16:56:14.643Z,20.60
2022-09-10T16:58:41.838Z,20.43
2022-09-10T17:01:09.405Z,20.15
2022-09-10T17:03:43.859Z,19.90
2022-09-10T17:06:22.064Z,19.60
2022-09-10T17:08:48.420Z,19.53
2022-09-10T17:11:16.624Z,19.47
2022-09-10T17:13:43.306Z,19.37
2022-09-10T17:16:28.817Z,19.36
2022-09-10T17:19:01.368Z,19.33
2022-09-10T17:21:29.670Z,19.29
2022-09-10T17:23:56.380Z,19.28
2022-09-10T17:26:23.206Z,19.23
2022-09-10T17:29:01.415Z,19.11
2022-09-10T17:31:29.363Z,19.11
2022-09-10T17:33:56.971Z,19.06
2022-09-10T17:36:24.219Z,19.03
2022-09-10T17:38:50.817Z,18.92
2022-09-10T17:41:17.161Z,18.92
2022-09-10T17:43:43.734Z,18.79
2022-09-10T17:46:15.280Z,18.73
2022-09-10T17:48:42.744Z,18.74
2022-09-10T17:51:12.780Z,18.68
2022-09-10T17:53:39.091Z,18.60
2022-09-10T17:56:09.040Z,18.59
2022-09-10T17:58:35.775Z,18.51
2022-09-10T18:01:06.758Z,18.44
2022-09-10T18:03:33.469Z,18.32
2022-09-10T18:06:07.634Z,18.28
2022-09-10T18:08:34.889Z,18.22
2022-09-10T18:11:13.646Z,18.10
2022-09-10T18:13:40.375Z,18.05
2022-09-10T18:16:06.801Z,18.03
2022-09-10T18:18:33.592Z,17.95
2022-09-10T18:21:10.979Z,17.89
2022-09-10T18:23:37.611Z,17.73
2022-09-10T18:26:17.954Z,17.75
2022-09-10T18:28:44.284Z,17.68
2022-09-10T18:31:11.262Z,17.62
2022-09-10T18:33:39.495Z,17.49
2022-09-10T18:36:14.207Z,17.50
2022-09-10T18:38:41.544Z,17.44
2022-09-10T18:41:28.599Z,17.30
2022-09-10T18:43:59.787Z,17.28
2022-09-10T18:46:27.480Z,17.22
2022-09-10T18:48:53.792Z,17.13
2022-09-10T18:51:23.480Z,17.02
2022-09-10T18:53:54.059Z,16.98
2022-09-10T18:56:23.065Z,16.94
2022-09-10T18:58:54.693Z,16.82
2022-09-10T19:01:22.173Z,16.84
2022-09-10T19:03:49.293Z,16.80
2022-09-10T19:06:18.972Z,16.73
2022-09-10T19:08:54.206Z,16.70
2022-09-10T19:11:22.676Z,16.58
2022-09-10T19:13:53.468Z,16.60
2022-09-10T19:16:21.696Z,16.48
2022-09-10T19:18:53.266Z,16.50
2022-09-10T19:21:20.869Z,16.46
2022-09-10T19:23:48.960Z,16.43
2022-09-10T19:26:17.043Z,16.32
2022-09-10T19:28:43.707Z,16.28
2022-09-10T19:31:14.101Z,16.30
2022-09-10T19:33:40.684Z,16.27
2022-09-10T19:36:10.090Z,16.23
2022-09-10T19:38:38.021Z,16.13
2022-09-10T19:41:12.664Z,16.14
2022-09-10T19:43:40.695Z,16.11
2022-09-10T19:46:09.107Z,16.01
2022-09-10T19:48:35.697Z,16.00
2022-09-10T19:51:03.643Z,15.92
2022-09-10T19:53:29.955Z,15.91
2022-09-10T19:56:04.891Z,15.87
2022-09-10T19:58:31.218Z,15.77
2022-09-10T20:00:57.517Z,15.78
2022-09-10T20:03:23.910Z,15.81
2022-09-10T20:05:50.263Z,15.86
2022-09-10T20:08:16.573Z,15.84
2022-09-10T20:10:49.685Z,15.83
2022-09-10T20:13:16.001Z,15.84
2022-09-10T20:15:45.378Z,15.74
2022-09-10T20:18:12.088Z,15.84
2022-09-10T20:20:38.406Z,15.81
2022-09-10T20:23:04.699Z,15.74
2022-09-10T20:25:31.057Z,15.73
2022-09-10T20:27:58.343Z,15.79
2022-09-10T20:30:25.683Z,15.70
2022-09-10T20:32:52.016Z,15.77
2022-09-10T20:35:18.339Z,15.63
2022-09-10T20:37:47.807Z,15.65
2022-09-10T20:40:16.332Z,15.67
2022-09-10T20:42:42.689Z,15.59
2022-09-10T20:45:09.444Z,15.64
2022-09-10T20:47:35.778Z,15.55
2022-09-10T20:50:02.072Z,15.56
2022-09-10T20:52:28.387Z,15.54
2022-09-10T20:54:54.724Z,15.48
2022-09-10T20:57:21.046Z,15.41
2022-09-10T20:59:47.369Z,15.35
2022-09-10T21:02:13.757Z,15.30
2022-09-10T21:04:40.174Z,15.21
2022-09-10T21:07:06.483Z,15.18
2022-09-10T21:09:32.788Z,15.01
2022-09-10T21:11:59.140Z,15.07
2022-09-10T21:14:25.456Z,15.00
2022-09-10T21:16:51.763Z,14.98
2022-09-10T21:19:18.108Z,14.89
2022-09-10T21:21:46.016Z,14.87
2022-09-10T21:24:14.579Z,14.90
2022-09-10T21:26:42.096Z,14.82
2022-09-10T21:29:11.805Z,14.86
2022-09-10T21:31:38.749Z,14.81
2022-09-10T21:34:05.389Z,14.81
2022-09-10T21:36:33.398Z,14.74
2022-09-10T21:39:01.869Z,14.79
2022-09-10T21:41:34.148Z,14.71
2022-09-10T21:44:01.762Z,14.74
2022-09-10T21:46:28.228Z,14.66
2022-09-10T21:48:54.989Z,14.68
2022-09-10T21:51:22.331Z,14.65
2022-09-10T21:53:52.863Z,14.59
2022-09-10T21:56:19.294Z,14.44
2022-09-10T21:58:45.714Z,14.40
2022-09-10T22:01:15.581Z,14.40
2022-09-10T22:03:41.905Z,14.35
2022-09-10T22:06:13.914Z,14.26
2022-09-10T22:08:41.948Z,14.28
2022-09-10T22:11:11.540Z,14.25
2022-09-10T22:13:37.871Z,14.18
2022-09-10T22:16:08.074Z,14.15
2022-09-10T22:18:35.438Z,14.12
2022-09-10T22:21:02.157Z,14.08
2022-09-10T22:23:30.324Z,14.10
2022-09-10T22:26:03.295Z,14.07
2022-09-10T22:28:34.299Z,14.06
2022-09-10T22:31:09.802Z,14.06
2022-09-10T22:33:38.353Z,14.04
2022-09-10T22:36:15.624Z,13.96
2022-09-10T22:38:43.383Z,14.01
2022-09-10T22:41:10.000Z,13.97
2022-09-10T22:43:37.703Z,13.95
2022-09-10T22:46:05.669Z,13.87
2022-09-10T22:48:35.383Z,13.79
2022-09-10T22:51:01.692Z,13.86
2022-09-10T22:53:28.139Z,13.85
2022-09-10T22:55:54.431Z,13.81
2022-09-10T22:58:20.753Z,13.74
2022-09-10T23:00:47.159Z,13.75
2022-09-10T23:03:13.478Z,13.62
2022-09-10T23:05:39.775Z,13.63
2022-09-10T23:08:06.291Z,13.58
2022-09-10T23:10:32.602Z,13.48
2022-09-10T23:12:58.915Z,13.48
2022-09-10T23:15:25.404Z,13.47
2022-09-10T23:17:53.926Z,13.51
2022-09-10T23:20:20.232Z,13.50
2022-09-10T23:22:48.269Z,13.48
2022-09-10T23:25:14.596Z,13.43
2022-09-10T23:27:40.907Z,13.49
2022-09-10T23:30:07.687Z,13.40
2022-09-10T23:32:34.020Z,13.41
2022-09-10T23:35:00.317Z,13.46
2022-09-10T23:37:26.614Z,13.47
2022-09-10T23:39:52.989Z,13.47
2022-09-10T23:42:19.305Z,13.45
2022-09-10T23:44:45.614Z,13.35
2022-09-10T23:47:12.132Z,13.36
2022-09-10T23:49:38.446Z,13.30
2022-09-10T23:52:04.801Z,13.30
2022-09-10T23:54:31.133Z,13.34
2022-09-10T23:56:57.432Z,13.29
2022-09-10T23:59:23.734Z,13.32
